createdAt,value
2018-05-24T00:02:18.619Z,15.30
2018-05-24T00:04:46.053Z,15.20
2018-05-24T00:07:14.267Z,15.20
2018-05-24T00:09:41.707Z,15.20
2018-05-24T00:12:09.157Z,15.20
2018-05-24T00:14:36.600Z,15.20
2018-05-24T00:17:04.836Z,15.10
2018-05-24T00:19:32.278Z,15.10
2018-05-24T00:21:59.708Z,15.10
2018-05-24T00:24:27.143Z,15.10
2018-05-24T00:26:54.580Z,15.10
2018-05-24T00:29:22.786Z,15.10
2018-05-24T00:31:50.228Z,15.10
2018-05-24T00:34:17.687Z,15.10
2018-05-24T00:36:45.133Z,15.00
2018-05-24T00:39:13.355Z,15.00
2018-05-24T00:41:40.789Z,15.00
2018-05-24T00:44:08.230Z,15.00
2018-05-24T00:46:36.441Z,14.90
2018-05-24T00:49:03.875Z,14.90
2018-05-24T00:51:31.322Z,14.90
2018-05-24T00:53:58.776Z,14.90
2018-05-24T00:56:26.220Z,14.80
2018-05-24T00:58:54.417Z,14.80
2018-05-24T01:01:21.861Z,14.70
2018-05-24T01:03:49.326Z,14.70
2018-05-24T01:06:16.759Z,14.70
2018-05-24T01:08:44.978Z,14.60
2018-05-24T01:11:12.430Z,14.60
2018-05-24T01:13:39.886Z,14.60
2018-05-24T01:16:07.322Z,14.60
2018-05-24T01:18:34.760Z,14.50
2018-05-24T01:21:02.969Z,14.50
2018-05-24T01:23:30.420Z,14.40
2018-05-24T01:25:57.849Z,14.40
2018-05-24T01:28:26.056Z,14.40
2018-05-24T01:30:53.492Z,14.30
2018-05-24T01:33:20.928Z,14.30
2018-05-24T01:35:49.185Z,14.30
2018-05-24T01:38:16.641Z,14.30
2018-05-24T01:40:44.299Z,14.20
2018-05-24T01:43:11.753Z,14.20
2018-05-24T01:45:39.192Z,14.20
2018-05-24T01:48:06.634Z,14.20
2018-05-24T01:50:34.065Z,14.20
2018-05-24T01:53:01.505Z,14.10
2018-05-24T01:55:30.681Z,14.10
2018-05-24T01:57:58.146Z,14.10
2018-05-24T02:00:25.592Z,14.10
2018-05-24T02:02:53.032Z,14.10
2018-05-24T02:05:20.471Z,14.10
2018-05-24T02:07:47.917Z,14.10
2018-05-24T02:10:15.390Z,14.10
2018-05-24T02:12:42.864Z,14.10
2018-05-24T02:15:10.292Z,14.10
2018-05-24T02:17:37.733Z,14.10
2018-05-24T02:20:05.256Z,14.10
2018-05-24T02:22:32.688Z,14.10
2018-05-24T02:25:00.128Z,14.10
2018-05-24T02:27:27.565Z,14.10
2018-05-24T02:29:55.004Z,14.10
2018-05-24T02:32:22.436Z,14.10
2018-05-24T02:34:50.652Z,14.10
2018-05-24T02:37:18.097Z,14.00
2018-05-24T02:39:45.537Z,14.00
2018-05-24T02:42:13.738Z,14.00
2018-05-24T02:44:41.192Z,14.00
2018-05-24T02:47:08.621Z,14.00
2018-05-24T02:49:36.840Z,14.00
2018-05-24T02:52:04.290Z,14.00
2018-05-24T02:54:31.747Z,14.00
2018-05-24T02:56:59.198Z,14.00
2018-05-24T02:59:26.700Z,14.00
2018-05-24T03:01:54.162Z,14.00
2018-05-24T03:04:21.603Z,14.00
2018-05-24T03:06:49.035Z,14.00
2018-05-24T03:09:16.487Z,14.00
2018-05-24T03:11:43.933Z,14.00
2018-05-24T03:14:11.349Z,14.00
2018-05-24T03:16:39.590Z,13.90
2018-05-24T03:19:07.028Z,13.90
2018-05-24T03:21:34.468Z,13.90
2018-05-24T03:24:01.913Z,13.90
2018-05-24T03:26:29.373Z,13.80
2018-05-24T03:28:57.555Z,13.80
2018-05-24T03:31:24.991Z,13.80
2018-05-24T03:33:53.206Z,13.70
2018-05-24T03:36:20.641Z,13.70
2018-05-24T03:38:48.077Z,13.70
2018-05-24T03:41:15.544Z,13.70
2018-05-24T03:43:43.005Z,13.70
2018-05-24T03:46:10.442Z,13.70
2018-05-24T03:48:38.644Z,13.60
2018-05-24T03:51:06.124Z,13.60
2018-05-24T03:53:33.558Z,13.60
2018-05-24T03:56:01.010Z,13.60
2018-05-24T03:58:28.470Z,13.60
2018-05-24T04:01:07.676Z,13.60
2018-05-24T04:03:48.960Z,13.60
2018-05-24T04:06:16.402Z,13.50
2018-05-24T04:08:44.606Z,13.50
2018-05-24T04:11:12.080Z,13.50
2018-05-24T04:13:39.549Z,13.50
2018-05-24T04:16:07.789Z,13.50
2018-05-24T04:18:35.218Z,13.50
2018-05-24T04:21:03.429Z,13.50
2018-05-24T04:23:30.862Z,13.50
2018-05-24T04:25:59.068Z,13.50
2018-05-24T04:28:26.513Z,13.50
2018-05-24T04:30:53.955Z,13.50
2018-05-24T04:33:21.392Z,13.50
2018-05-24T04:35:49.596Z,13.60
2018-05-24T04:38:17.020Z,13.60
2018-05-24T04:40:45.251Z,13.60
2018-05-24T04:43:12.683Z,13.60
2018-05-24T04:45:40.125Z,13.70
2018-05-24T04:48:07.578Z,13.70
2018-05-24T04:50:35.016Z,13.80
2018-05-24T04:53:03.245Z,13.90
2018-05-24T04:55:30.701Z,13.90
2018-05-24T04:57:58.130Z,14.00
2018-05-24T05:00:25.592Z,14.00
2018-05-24T05:02:53.086Z,14.10
2018-05-24T05:05:20.485Z,14.20
2018-05-24T05:07:48.681Z,14.30
2018-05-24T05:10:16.116Z,14.30
2018-05-24T05:12:43.585Z,14.40
2018-05-24T05:15:11.056Z,14.50
2018-05-24T05:17:38.503Z,14.60
2018-05-24T05:20:06.707Z,14.80
2018-05-24T05:22:34.205Z,15.80
2018-05-24T05:25:02.409Z,14.90
2018-05-24T05:27:29.853Z,14.90
2018-05-24T05:29:57.284Z,15.00
2018-05-24T05:32:25.493Z,15.20
2018-05-24T05:34:52.941Z,15.20
2018-05-24T05:37:20.388Z,15.30
2018-05-24T05:39:48.572Z,15.40
2018-05-24T05:42:16.024Z,15.40
2018-05-24T05:44:43.592Z,15.50
2018-05-24T05:47:10.956Z,15.50
2018-05-24T05:49:38.406Z,15.60
2018-05-24T05:52:05.980Z,15.60
2018-05-24T05:54:33.338Z,15.60
2018-05-24T05:57:00.782Z,15.70
2018-05-24T05:59:28.982Z,15.70
2018-05-24T06:01:56.494Z,15.70
2018-05-24T06:04:23.873Z,15.70
2018-05-24T06:06:51.627Z,15.70
2018-05-24T06:09:19.826Z,15.80
2018-05-24T06:11:47.272Z,15.70
2018-05-24T06:14:14.711Z,15.80
2018-05-24T06:16:42.145Z,15.80
2018-05-24T06:19:10.385Z,15.90
2018-05-24T06:21:37.849Z,15.90
2018-05-24T06:24:05.293Z,16.00
2018-05-24T06:26:34.227Z,16.10
2018-05-24T06:29:02.537Z,16.10
2018-05-24T06:31:29.965Z,16.10
2018-05-24T06:33:57.405Z,16.10
2018-05-24T06:36:25.982Z,16.30
2018-05-24T06:38:54.805Z,16.30
2018-05-24T06:41:22.236Z,16.30
2018-05-24T06:43:50.480Z,16.40
2018-05-24T06:46:17.921Z,16.40
2018-05-24T06:48:45.385Z,16.50
2018-05-24T06:51:12.857Z,16.60
2018-05-24T06:53:40.312Z,16.60
2018-05-24T06:56:07.741Z,16.70
2018-05-24T06:58:35.220Z,16.80
2018-05-24T07:01:02.697Z,16.90
2018-05-24T07:03:30.980Z,17.00
2018-05-24T07:05:59.224Z,17.10
2018-05-24T07:08:26.608Z,17.10
2018-05-24T07:10:54.823Z,17.30
2018-05-24T07:13:22.380Z,17.30
2018-05-24T07:15:49.715Z,17.40
2018-05-24T07:18:17.157Z,17.50
2018-05-24T07:20:45.369Z,17.70
2018-05-24T07:23:12.804Z,17.70
2018-05-24T07:25:40.327Z,17.80
2018-05-24T07:28:07.766Z,17.80
2018-05-24T07:30:35.220Z,17.90
2018-05-24T07:33:02.668Z,18.00
2018-05-24T07:35:30.109Z,18.00
2018-05-24T07:37:57.549Z,18.10
2018-05-24T07:40:24.985Z,18.10
2018-05-24T07:42:53.193Z,18.20
2018-05-24T07:45:20.635Z,18.20
2018-05-24T07:47:48.068Z,18.30
2018-05-24T07:50:16.300Z,18.40
2018-05-24T07:52:43.764Z,18.40
2018-05-24T07:55:11.221Z,18.50
2018-05-24T07:57:38.663Z,18.50
2018-05-24T08:00:06.107Z,18.50
2018-05-24T08:02:33.531Z,18.60
2018-05-24T08:05:00.976Z,18.60
2018-05-24T08:07:29.184Z,18.70
2018-05-24T08:09:56.637Z,18.60
2018-05-24T08:12:24.103Z,18.70
2018-05-24T08:14:51.660Z,18.80
2018-05-24T08:17:19.035Z,18.80
2018-05-24T08:19:46.502Z,18.90
2018-05-24T08:22:13.932Z,18.90
2018-05-24T08:24:41.378Z,19.00
2018-05-24T08:27:08.817Z,19.00
2018-05-24T08:29:36.268Z,19.10
2018-05-24T08:32:04.466Z,19.30
2018-05-24T08:34:31.896Z,19.30
2018-05-24T08:37:00.100Z,19.40
2018-05-24T08:39:27.541Z,19.40
2018-05-24T08:41:54.981Z,19.40
2018-05-24T08:44:23.221Z,19.50
2018-05-24T08:46:50.656Z,19.50
2018-05-24T08:49:18.117Z,19.60
2018-05-24T08:51:45.649Z,19.70
2018-05-24T08:54:13.101Z,19.70
2018-05-24T08:56:40.548Z,19.60
2018-05-24T08:59:08.002Z,19.60
2018-05-24T09:01:35.483Z,19.60
2018-05-24T09:04:03.693Z,19.70
2018-05-24T09:06:31.137Z,19.70
2018-05-24T09:08:58.573Z,19.70
2018-05-24T09:11:26.010Z,19.80
2018-05-24T09:13:53.489Z,19.90
2018-05-24T09:16:20.962Z,19.90
2018-05-24T09:18:48.405Z,20.10
2018-05-24T09:21:15.847Z,20.10
2018-05-24T09:23:43.313Z,20.20
2018-05-24T09:26:10.748Z,20.20
2018-05-24T09:28:38.185Z,20.30
2018-05-24T09:31:06.398Z,20.00
2018-05-24T09:33:33.872Z,20.40
2018-05-24T09:36:02.263Z,20.50
2018-05-24T09:38:29.720Z,20.50
2018-05-24T09:40:58.008Z,20.70
2018-05-24T09:43:25.450Z,20.60
2018-05-24T09:45:52.909Z,20.70
2018-05-24T09:48:20.430Z,20.70
2018-05-24T09:50:47.903Z,20.80
2018-05-24T09:53:15.332Z,20.80
2018-05-24T09:55:42.772Z,20.90
2018-05-24T09:58:10.974Z,21.00
2018-05-24T10:00:38.429Z,21.00
2018-05-24T10:03:05.899Z,21.10
2018-05-24T10:05:33.356Z,21.20
2018-05-24T10:08:00.837Z,21.20
2018-05-24T10:10:28.357Z,21.30
2018-05-24T10:12:55.723Z,21.30
2018-05-24T10:15:23.161Z,21.30
2018-05-24T10:17:50.738Z,21.40
2018-05-24T10:20:18.181Z,21.40
2018-05-24T10:22:45.627Z,21.50
2018-05-24T10:25:13.856Z,21.60
2018-05-24T10:27:41.284Z,21.50
2018-05-24T10:30:08.719Z,21.60
2018-05-24T10:32:36.960Z,21.60
2018-05-24T10:35:04.392Z,21.60
2018-05-24T10:37:31.840Z,21.60
2018-05-24T10:39:59.337Z,21.70
2018-05-24T10:42:26.783Z,21.80
2018-05-24T10:44:54.229Z,21.80
2018-05-24T10:47:21.822Z,21.80
2018-05-24T10:49:49.290Z,21.80
2018-05-24T10:52:17.505Z,21.90
2018-05-24T10:54:44.941Z,21.90
2018-05-24T10:57:12.430Z,22.00
2018-05-24T10:59:39.995Z,22.10
2018-05-24T11:02:08.324Z,22.20
2018-05-24T11:04:35.823Z,22.00
2018-05-24T11:07:03.459Z,22.20
2018-05-24T11:09:30.934Z,22.20
2018-05-24T11:11:58.405Z,22.20
2018-05-24T11:14:25.840Z,22.10
2018-05-24T11:16:53.286Z,22.10
2018-05-24T11:19:21.608Z,22.10
2018-05-24T11:21:49.061Z,22.00
2018-05-24T11:24:16.530Z,22.00
2018-05-24T11:26:43.969Z,22.10
2018-05-24T11:29:11.405Z,22.10
2018-05-24T11:31:38.845Z,22.10
2018-05-24T11:34:06.281Z,22.10
2018-05-24T11:36:34.484Z,22.30
2018-05-24T11:39:01.912Z,22.30
2018-05-24T11:41:30.132Z,22.50
2018-05-24T11:43:57.562Z,22.50
2018-05-24T11:46:25.016Z,22.60
2018-05-24T11:48:52.448Z,22.60
2018-05-24T11:51:20.809Z,22.50
2018-05-24T11:53:48.267Z,22.50
2018-05-24T11:56:15.922Z,22.50
2018-05-24T11:58:43.409Z,22.40
2018-05-24T12:01:11.617Z,22.50
2018-05-24T12:03:39.146Z,22.40
2018-05-24T12:06:07.349Z,22.60
2018-05-24T12:08:34.908Z,22.60
2018-05-24T12:11:02.332Z,22.70
2018-05-24T12:13:30.541Z,22.80
2018-05-24T12:15:58.029Z,22.80
2018-05-24T12:18:25.473Z,22.70
2018-05-24T12:20:52.963Z,22.70
2018-05-24T12:23:20.609Z,22.70
2018-05-24T12:25:48.209Z,22.70
2018-05-24T12:28:16.511Z,22.70
2018-05-24T12:30:43.956Z,22.60
2018-05-24T12:33:11.457Z,22.70
2018-05-24T12:35:38.968Z,22.80
2018-05-24T12:38:06.351Z,22.90
2018-05-24T12:40:33.785Z,22.90
2018-05-24T12:43:01.333Z,23.00
2018-05-24T12:45:28.772Z,23.00
2018-05-24T12:47:56.985Z,23.20
2018-05-24T12:50:24.430Z,23.20
2018-05-24T12:52:51.862Z,23.30
2018-05-24T12:55:20.188Z,23.40
2018-05-24T12:57:47.630Z,23.40
2018-05-24T13:00:15.060Z,23.50
2018-05-24T13:02:43.311Z,23.60
2018-05-24T13:05:11.526Z,23.60
2018-05-24T13:07:39.128Z,23.60
2018-05-24T13:10:06.611Z,23.50
2018-05-24T13:12:34.880Z,23.20
2018-05-24T13:15:02.336Z,23.20
2018-05-24T13:17:29.778Z,23.10
2018-05-24T13:19:57.219Z,22.90
2018-05-24T13:22:25.422Z,22.80
2018-05-24T13:24:52.856Z,22.80
2018-05-24T13:27:20.385Z,22.70
2018-05-24T13:29:47.849Z,22.50
2018-05-24T13:32:15.331Z,22.50
2018-05-24T13:34:43.532Z,22.40
2018-05-24T13:37:11.026Z,22.30
2018-05-24T13:39:38.590Z,22.30
2018-05-24T13:42:06.024Z,22.30
2018-05-24T13:44:34.260Z,22.30
2018-05-24T13:47:01.720Z,22.30
2018-05-24T13:49:29.186Z,22.30
2018-05-24T13:51:56.644Z,22.30
2018-05-24T13:54:24.140Z,22.30
2018-05-24T13:56:52.381Z,22.40
2018-05-24T13:59:19.826Z,22.40
2018-05-24T14:01:47.336Z,22.50
2018-05-24T14:04:14.713Z,22.50
2018-05-24T14:06:42.165Z,22.60
2018-05-24T14:09:09.603Z,22.60
2018-05-24T14:11:37.293Z,22.70
2018-05-24T14:14:04.787Z,22.90
2018-05-24T14:16:32.225Z,23.00
2018-05-24T14:18:59.756Z,23.20
2018-05-24T14:21:27.216Z,23.30
2018-05-24T14:23:54.670Z,23.30
2018-05-24T14:26:22.100Z,23.30
2018-05-24T14:28:50.329Z,23.40
2018-05-24T14:31:17.779Z,23.40
2018-05-24T14:33:45.240Z,23.40
2018-05-24T14:36:12.700Z,23.30
2018-05-24T14:38:40.179Z,23.30
2018-05-24T14:41:07.616Z,23.30
2018-05-24T14:43:35.050Z,23.30
2018-05-24T14:46:02.557Z,23.30
2018-05-24T14:48:30.799Z,23.20
2018-05-24T14:50:58.298Z,23.20
2018-05-24T14:53:26.534Z,23.00
2018-05-24T14:55:53.979Z,22.90
2018-05-24T14:58:21.404Z,22.80
2018-05-24T15:00:48.844Z,22.60
2018-05-24T15:03:17.077Z,22.40
2018-05-24T15:05:44.530Z,22.40
2018-05-24T15:08:11.984Z,22.20
2018-05-24T15:10:39.421Z,21.00
2018-05-24T15:13:06.852Z,22.00
2018-05-24T15:15:35.074Z,21.80
2018-05-24T15:18:02.556Z,21.80
2018-05-24T15:20:29.990Z,21.80
2018-05-24T15:22:57.469Z,21.70
2018-05-24T15:25:24.961Z,21.70
2018-05-24T15:27:53.164Z,21.60
2018-05-24T15:30:20.608Z,21.60
2018-05-24T15:35:27.828Z,21.60
2018-05-24T15:37:55.295Z,21.50
2018-05-24T15:40:22.732Z,21.50
2018-05-24T15:42:50.230Z,21.50
2018-05-24T15:45:17.683Z,21.50
2018-05-24T15:47:45.107Z,21.50
2018-05-24T15:50:12.574Z,21.50
2018-05-24T15:52:40.045Z,21.40
2018-05-24T15:55:07.485Z,21.40
2018-05-24T15:57:34.920Z,21.40
2018-05-24T16:00:02.355Z,21.30
2018-05-24T16:02:30.552Z,21.30
2018-05-24T16:04:58.777Z,21.20
2018-05-24T16:07:26.273Z,21.20
2018-05-24T16:09:54.488Z,21.10
2018-05-24T16:12:21.922Z,21.10
2018-05-24T16:14:49.361Z,21.00
2018-05-24T16:17:17.568Z,21.00
2018-05-24T16:19:45.187Z,21.00
2018-05-24T16:22:13.428Z,20.90
2018-05-24T16:24:41.052Z,20.90
2018-05-24T16:27:08.512Z,20.80
2018-05-24T16:29:35.956Z,20.80
2018-05-24T16:32:03.400Z,20.80
2018-05-24T16:34:31.662Z,20.70
2018-05-24T16:36:59.170Z,20.70
2018-05-24T16:39:26.596Z,20.60
2018-05-24T16:41:54.039Z,20.60
2018-05-24T16:44:22.402Z,20.50
2018-05-24T16:46:49.872Z,20.50
2018-05-24T16:49:18.130Z,20.40
2018-05-24T16:51:45.601Z,20.40
2018-05-24T16:54:13.121Z,20.40
2018-05-24T16:56:41.279Z,20.30
2018-05-24T16:59:08.756Z,20.30
2018-05-24T17:01:36.148Z,20.30
2018-05-24T17:04:04.597Z,20.20
2018-05-24T17:06:32.340Z,20.20
2018-05-24T17:09:00.892Z,20.20
2018-05-24T17:11:29.261Z,20.20
2018-05-24T17:13:57.472Z,20.20
2018-05-24T17:16:24.920Z,20.10
2018-05-24T17:18:53.057Z,20.20
2018-05-24T17:21:22.132Z,20.10
2018-05-24T17:23:50.393Z,20.10
2018-05-24T17:26:18.673Z,20.10
2018-05-24T17:28:46.110Z,20.10
2018-05-24T17:31:13.604Z,20.10
2018-05-24T17:33:41.037Z,20.10
2018-05-24T17:36:08.486Z,20.10
2018-05-24T17:38:35.912Z,20.10
2018-05-24T17:41:03.396Z,20.10
2018-05-24T17:43:30.855Z,20.10
2018-05-24T17:45:59.155Z,20.00
2018-05-24T17:48:26.745Z,20.00
2018-05-24T17:50:55.619Z,20.00
2018-05-24T17:53:24.047Z,20.00
2018-05-24T17:55:51.504Z,20.00
2018-05-24T17:58:18.945Z,20.10
2018-05-24T18:00:46.382Z,20.00
2018-05-24T18:03:16.406Z,19.90
2018-05-24T18:05:43.984Z,19.90
2018-05-24T18:08:11.527Z,19.90
2018-05-24T18:10:41.031Z,19.80
2018-05-24T18:13:09.353Z,19.70
2018-05-24T18:15:37.757Z,19.70
2018-05-24T18:18:05.412Z,19.70
2018-05-24T18:20:33.825Z,19.60
2018-05-24T18:23:01.287Z,19.60
2018-05-24T18:25:28.893Z,19.50
2018-05-24T18:27:56.380Z,19.50
2018-05-24T18:30:23.913Z,19.40
2018-05-24T18:32:51.368Z,19.40
2018-05-24T18:35:18.868Z,19.40
2018-05-24T18:37:47.353Z,19.30
2018-05-24T18:40:14.973Z,19.30
2018-05-24T18:42:42.538Z,19.30
2018-05-24T18:45:09.977Z,19.30
2018-05-24T18:47:37.441Z,19.20
2018-05-24T18:50:04.983Z,19.20
2018-05-24T18:52:32.458Z,19.20
2018-05-24T18:54:59.931Z,19.10
2018-05-24T18:57:27.471Z,19.10
2018-05-24T18:59:55.701Z,19.40
2018-05-24T19:02:24.308Z,19.10
2018-05-24T19:04:51.894Z,19.00
2018-05-24T19:07:19.563Z,19.00
2018-05-24T19:09:47.574Z,19.00
2018-05-24T19:12:15.887Z,18.90
2018-05-24T19:14:45.242Z,18.90
2018-05-24T19:17:13.142Z,18.90
2018-05-24T19:19:41.029Z,18.80
2018-05-24T19:22:09.489Z,18.80
2018-05-24T19:24:37.300Z,18.80
2018-05-24T19:27:05.140Z,18.80
2018-05-24T19:29:33.726Z,18.70
2018-05-24T19:32:01.549Z,18.70
2018-05-24T19:34:33.093Z,18.70
2018-05-24T19:37:01.693Z,18.60
2018-05-24T19:39:29.650Z,18.60
2018-05-24T19:41:57.446Z,18.60
2018-05-24T19:44:24.992Z,18.60
2018-05-24T19:46:52.599Z,18.50
2018-05-24T19:49:20.825Z,18.50
2018-05-24T19:51:48.264Z,18.50
2018-05-24T19:54:16.263Z,18.40
2018-05-24T19:56:44.018Z,18.40
2018-05-24T19:59:11.473Z,18.40
2018-05-24T20:01:40.907Z,18.30
2018-05-24T20:04:09.325Z,18.30
2018-05-24T20:06:36.784Z,18.30
2018-05-24T20:09:04.659Z,18.20
2018-05-24T20:11:32.489Z,18.20
2018-05-24T20:14:00.201Z,18.20
2018-05-24T20:16:27.843Z,18.20
2018-05-24T20:18:55.404Z,18.20
2018-05-24T20:21:23.021Z,18.20
2018-05-24T20:23:51.268Z,18.20
2018-05-24T20:26:19.059Z,18.20
2018-05-24T20:28:47.309Z,18.20
2018-05-24T20:31:14.771Z,18.20
2018-05-24T20:33:42.533Z,18.20
2018-05-24T20:36:09.999Z,18.10
2018-05-24T20:38:37.451Z,18.10
2018-05-24T20:41:04.891Z,18.40
2018-05-24T20:43:32.316Z,18.10
2018-05-24T20:46:00.747Z,18.00
2018-05-24T20:48:28.204Z,18.00
2018-05-24T20:50:56.011Z,18.00
2018-05-24T20:53:23.639Z,18.00
2018-05-24T20:55:51.083Z,17.90
2018-05-24T20:58:18.532Z,17.90
2018-05-24T21:00:45.976Z,17.90
2018-05-24T21:03:13.409Z,17.80
2018-05-24T21:05:40.858Z,17.80
2018-05-24T21:08:09.057Z,17.70
2018-05-24T21:10:36.625Z,17.70
2018-05-24T21:13:04.064Z,17.70
2018-05-24T21:15:31.504Z,17.60
2018-05-24T21:17:59.916Z,17.50
2018-05-24T21:20:27.417Z,17.60
2018-05-24T21:22:54.853Z,17.50
2018-05-24T21:25:22.349Z,17.50
2018-05-24T21:27:50.550Z,17.50
2018-05-24T21:30:18.022Z,17.50
2018-05-24T21:32:45.489Z,17.40
2018-05-24T21:35:13.029Z,17.40
2018-05-24T21:37:40.629Z,17.40
2018-05-24T21:40:08.392Z,17.40
2018-05-24T21:42:36.829Z,17.30
2018-05-24T21:45:04.317Z,17.30
2018-05-24T21:47:31.836Z,17.30
2018-05-24T21:50:00.164Z,17.30
2018-05-24T21:52:27.627Z,17.20
2018-05-24T21:54:55.283Z,17.20
2018-05-24T21:57:23.516Z,17.10
2018-05-24T21:59:51.125Z,17.10
2018-05-24T22:02:19.714Z,17.10
2018-05-24T22:04:47.453Z,17.10
2018-05-24T22:07:14.940Z,17.10
2018-05-24T22:09:42.367Z,17.00
2018-05-24T22:12:09.797Z,17.00
2018-05-24T22:14:37.445Z,17.00
2018-05-24T22:17:04.951Z,17.00
2018-05-24T22:19:32.723Z,16.90
2018-05-24T22:22:00.225Z,16.90
2018-05-24T22:24:27.661Z,16.90
2018-05-24T22:26:56.278Z,16.80
2018-05-24T22:29:23.801Z,16.80
2018-05-24T22:31:52.007Z,16.80
2018-05-24T22:34:19.449Z,16.80
2018-05-24T22:36:46.895Z,16.70
2018-05-24T22:39:14.336Z,16.70
2018-05-24T22:41:42.563Z,16.70
2018-05-24T22:44:10.009Z,16.70
2018-05-24T22:46:37.460Z,16.60
2018-05-24T22:49:04.918Z,16.60
2018-05-24T22:51:32.355Z,16.60
2018-05-24T22:53:59.801Z,16.50
2018-05-24T22:56:28.002Z,16.50
2018-05-24T22:58:55.448Z,16.50
2018-05-24T23:01:22.921Z,16.50
2018-05-24T23:03:50.376Z,16.50
2018-05-24T23:06:17.837Z,16.50
2018-05-24T23:08:45.263Z,16.40
2018-05-24T23:11:12.745Z,16.40
2018-05-24T23:13:40.176Z,16.40
2018-05-24T23:16:07.621Z,16.30
2018-05-24T23:18:35.823Z,16.30
2018-05-24T23:21:03.285Z,16.30
2018-05-24T23:23:30.744Z,16.30
2018-05-24T23:25:58.204Z,16.20
2018-05-24T23:28:25.644Z,16.20
2018-05-24T23:30:53.074Z,16.20
2018-05-24T23:33:21.278Z,16.10
2018-05-24T23:35:48.726Z,16.10
2018-05-24T23:38:16.924Z,16.10
2018-05-24T23:40:44.375Z,16.10
2018-05-24T23:43:11.816Z,16.10
2018-05-24T23:45:39.257Z,16.10
2018-05-24T23:48:07.481Z,16.00
2018-05-24T23:50:34.938Z,16.00
2018-05-24T23:53:02.416Z,16.00
2018-05-24T23:55:30.644Z,15.90
2018-05-24T23:57:58.104Z,15.90
